Terminal Aerodrome Forecast
Issued by NWS

Home | Current Version | Previous Version | Text Only | Print | Product List | Glossary On
Versions: 1 2 3 4 5 6 7 8 9 10 11 12
000
FTUS43 KGRB 040520
TAFCWA
TAF
KCWA 040520Z 0406/0506 28005KT P6SM SCT040 SCT110
      TEMPO 0406/0408 -SHRA BKN040
     FM040900 VRB02KT 6SM BR SCT040 BKN100
     FM041400 09004KT 6SM HZ SCT035
     FM041800 21005KT 6SM HZ BKN035
     FM050100 18003KT P6SM SCT040=

USA.gov is the U.S. government's official web portal to all federal, state and local government web resources and services.